createdAt,value
2022-08-05T00:01:28.560Z,100956.38
2022-08-05T00:03:57.171Z,100957.44
2022-08-05T00:06:32.384Z,100958.50
2022-08-05T00:09:00.625Z,100954.69
2022-08-05T00:11:30.213Z,100953.00
2022-08-05T00:14:02.224Z,100943.28
2022-08-05T00:16:35.909Z,100962.94
2022-08-05T00:19:03.667Z,100954.69
2022-08-05T00:21:30.624Z,100953.63
2022-08-05T00:24:10.871Z,100943.91
2022-08-05T00:26:38.162Z,100948.19
2022-08-05T00:29:04.581Z,100954.97
2022-08-05T00:31:54.474Z,100947.78
2022-08-05T00:34:56.344Z,100938.69
2022-08-05T00:37:12.593Z,100943.13
2022-08-05T00:39:44.439Z,100937.63
2022-08-05T00:42:31.502Z,100942.53
2022-08-05T00:44:59.381Z,100943.38
2022-08-05T00:47:25.929Z,100945.28
2022-08-05T00:49:52.404Z,100932.56
2022-08-05T00:52:28.754Z,100926.22
2022-08-05T00:54:55.974Z,100935.56
2022-08-05T00:57:25.145Z,100927.31
2022-08-05T00:59:52.151Z,100929.81
2022-08-05T01:02:18.607Z,100927.06
2022-08-05T01:04:45.138Z,100931.72
2022-08-05T01:07:17.870Z,100939.13
2022-08-05T01:09:44.915Z,100933.88
2022-08-05T01:12:17.976Z,100937.47
2022-08-05T01:14:48.601Z,100942.97
2022-08-05T01:17:21.629Z,100937.69
2022-08-05T01:20:01.023Z,100938.75
2022-08-05T01:22:35.693Z,100937.69
2022-08-05T01:25:17.458Z,100933.88
2022-08-05T01:27:50.630Z,100945.09
2022-08-05T01:30:34.099Z,100951.44
2022-08-05T01:33:03.782Z,100955.03
2022-08-05T01:35:51.900Z,100977.03
2022-08-05T01:38:24.840Z,101015.53
2022-08-05T01:40:55.513Z,100997.34
2022-08-05T01:43:24.114Z,100964.16
2022-08-05T01:45:54.087Z,100975.59
2022-08-05T01:48:23.116Z,101001.66
2022-08-05T01:50:51.508Z,100992.56
2022-08-05T01:53:55.119Z,100978.81
2022-08-05T01:56:09.504Z,100982.84
2022-08-05T01:58:40.867Z,100988.78
2022-08-05T02:01:13.111Z,100979.69
2022-08-05T02:03:43.946Z,100966.78
2022-08-05T02:06:33.329Z,100965.09
2022-08-05T02:09:00.488Z,100967.44
2022-08-05T02:11:32.816Z,100969.16
2022-08-05T02:14:12.512Z,100962.78
2022-08-05T02:16:45.345Z,100967.91
2022-08-05T02:19:20.996Z,100963.88
2022-08-05T02:22:01.550Z,100960.03
2022-08-05T02:24:32.328Z,100967.44
2022-08-05T02:27:09.142Z,100966.84
2022-08-05T02:29:58.518Z,100964.94
2022-08-05T02:32:30.550Z,100965.34
2022-08-05T02:35:01.931Z,100969.53
2022-08-05T02:37:32.078Z,100964.03
2022-08-05T02:39:58.906Z,100964.91
2022-08-05T02:42:27.621Z,100951.38
2022-08-05T02:44:58.772Z,100964.03
2022-08-05T02:47:25.845Z,100954.94
2022-08-05T02:50:13.802Z,100946.75
2022-08-05T02:52:45.730Z,100953.31
2022-08-05T02:55:12.980Z,100948.88
2022-08-05T02:58:12.050Z,100954.19
2022-08-05T03:00:27.141Z,100954.78
2022-08-05T03:02:54.504Z,100958.38
2022-08-05T03:05:21.777Z,100964.09
2022-08-05T03:08:09.607Z,100960.28
2022-08-05T03:10:36.302Z,100949.03
2022-08-05T03:15:28.145Z,100953.31
2022-08-05T03:17:55.504Z,100968.75
2022-08-05T03:20:23.639Z,100955.84
2022-08-05T03:22:51.174Z,100956.94
2022-08-05T03:25:33.308Z,100953.09
2022-08-05T03:28:07.115Z,100954.78
2022-08-05T03:30:35.746Z,100948.44
2022-08-05T03:33:03.632Z,100957.53
2022-08-05T03:35:30.877Z,100957.28
2022-08-05T03:38:00.423Z,100959.22
2022-08-05T03:40:31.952Z,100962.78
2022-08-05T03:42:58.900Z,100959.22
2022-08-05T03:45:28.226Z,100949.03
2022-08-05T03:47:56.956Z,100947.38
2022-08-05T03:50:25.815Z,100955.19
2022-08-05T03:55:49.723Z,100940.81
2022-08-05T03:56:17.309Z,100938.50
2022-08-05T03:58:57.230Z,100928.78
2022-08-05T04:01:26.234Z,100931.53
2022-08-05T04:04:09.005Z,100929.44
2022-08-05T04:06:37.470Z,100931.94
2022-08-05T04:09:05.952Z,100930.66
2022-08-05T04:11:50.644Z,100932.13
2022-08-05T04:14:19.357Z,100942.03
2022-08-05T04:16:57.608Z,100944.59
2022-08-05T04:19:24.654Z,100949.84
2022-08-05T04:22:09.783Z,100948.78
2022-08-05T04:24:44.327Z,100949.41
2022-08-05T04:27:33.338Z,100948.56
2022-08-05T04:30:06.117Z,100950.25
2022-08-05T04:32:33.591Z,100951.94
2022-08-05T04:35:03.279Z,100953.59
2022-08-05T04:38:02.853Z,100947.91
2022-08-05T04:40:19.790Z,100949.56
2022-08-05T04:42:46.446Z,100953.16
2022-08-05T04:45:22.956Z,100942.16
2022-08-05T04:48:05.817Z,100950.22
2022-08-05T04:50:34.365Z,100957.38
2022-08-05T04:53:03.867Z,100963.72
2022-08-05T04:55:39.829Z,100969.84
2022-08-05T04:58:21.726Z,100968.78
2022-08-05T05:00:50.669Z,100968.78
2022-08-05T05:03:17.479Z,100968.78
2022-08-05T05:06:38.868Z,100960.31
2022-08-05T05:08:33.245Z,100962.81
2022-08-05T05:10:59.931Z,100956.47
2022-08-05T05:13:26.441Z,100952.69
2022-08-05T05:16:01.969Z,100970.88
2022-08-05T05:18:34.139Z,100970.88
2022-08-05T05:21:01.153Z,100970.63
2022-08-05T05:23:38.778Z,100967.88
2022-08-05T05:26:14.143Z,100969.34
2022-08-05T05:28:42.803Z,100962.78
2022-08-05T05:31:11.378Z,100961.94
2022-08-05T05:33:58.891Z,100947.94
2022-08-05T05:36:24.357Z,100948.78
2022-08-05T05:38:55.487Z,100945.84
2022-08-05T05:41:22.018Z,100953.84
2022-08-05T05:43:58.393Z,100944.75
2022-08-05T05:46:27.129Z,100947.28
2022-08-05T05:48:53.597Z,100938.81
2022-08-05T05:51:20.969Z,100954.25
2022-08-05T05:53:58.511Z,100956.75
2022-08-05T05:56:32.883Z,100963.09
2022-08-05T05:59:03.129Z,100969.47
2022-08-05T06:01:36.972Z,100975.84
2022-08-05T06:04:12.012Z,100988.53
2022-08-05T06:06:47.542Z,101002.28
2022-08-05T06:09:16.812Z,101014.38
2022-08-05T06:11:59.383Z,101035.28
2022-08-05T06:14:29.110Z,101041.88
2022-08-05T06:16:55.809Z,101039.97
2022-08-05T06:19:26.067Z,101035.28
2022-08-05T06:22:00.859Z,101038.88
2022-08-05T06:24:27.478Z,101038.88
2022-08-05T06:26:53.915Z,101050.72
2022-08-05T06:29:25.443Z,101063.66
2022-08-05T06:32:21.043Z,101074.66
2022-08-05T06:34:56.076Z,101075.50
2022-08-05T06:37:56.321Z,101079.31
2022-08-05T06:40:10.866Z,101088.19
2022-08-05T06:42:39.685Z,101088.41
2022-08-05T06:45:08.693Z,101072.75
2022-08-05T06:48:37.182Z,101074.41
2022-08-05T06:50:22.321Z,101075.28
2022-08-05T06:53:03.591Z,101078.88
2022-08-05T06:55:36.518Z,101088.81
2022-08-05T06:58:20.367Z,101104.88
2022-08-05T07:00:53.181Z,101099.38
2022-08-05T07:03:19.869Z,101108.47
2022-08-05T07:05:54.923Z,101091.72
2022-08-05T07:08:25.175Z,101084.13
2022-08-05T07:10:52.397Z,101075.88
2022-08-05T07:13:59.269Z,101070.97
2022-08-05T07:17:58.199Z,101066.28
2022-08-05T07:20:29.882Z,101078.78
2022-08-05T07:22:15.826Z,101077.72
2022-08-05T07:24:52.442Z,101082.97
2022-08-05T07:27:20.252Z,101078.09
2022-08-05T07:30:24.646Z,101085.09
2022-08-05T07:32:38.767Z,101073.59
2022-08-05T07:36:04.202Z,101075.53
2022-08-05T07:37:55.702Z,101069.81
2022-08-05T07:40:26.866Z,101079.50
2022-08-05T07:42:59.287Z,101071.03
2022-08-05T07:45:57.503Z,101069.72
2022-08-05T07:49:00.657Z,101086.88
2022-08-05T07:51:05.285Z,101094.06
2022-08-05T07:53:51.655Z,101095.50
2022-08-05T07:57:01.506Z,101114.56
2022-08-05T07:59:04.866Z,101117.34
2022-08-05T08:01:35.378Z,101119.84
2022-08-05T08:04:08.162Z,101123.25
2022-08-05T08:06:34.687Z,101118.78
2022-08-05T08:09:01.447Z,101128.50
2022-08-05T08:11:47.176Z,101127.66
2022-08-05T08:14:18.369Z,101124.91
2022-08-05T08:16:50.839Z,101125.75
2022-08-05T08:20:10.895Z,101118.34
2022-08-05T08:22:04.837Z,101121.72
2022-08-05T08:24:51.556Z,101124.47
2022-08-05T08:27:18.170Z,101130.81
2022-08-05T08:30:05.749Z,101130.81
2022-08-05T08:32:33.557Z,101119.81
2022-08-05T08:35:00.005Z,101115.13
2022-08-05T08:37:27.737Z,101106.88
2022-08-05T08:39:54.706Z,101101.38
2022-08-05T08:42:34.513Z,101093.34
2022-08-05T08:45:22.113Z,101096.09
2022-08-05T08:48:06.805Z,101097.97
2022-08-05T08:51:04.051Z,101097.16
2022-08-05T08:53:27.914Z,101111.38
2022-08-05T08:56:03.041Z,101105.00
2022-08-05T08:58:37.678Z,101108.00
2022-08-05T09:01:16.727Z,101099.97
2022-08-05T09:03:46.320Z,101112.91
2022-08-05T09:06:18.479Z,101108.44
2022-08-05T09:08:47.559Z,101095.75
2022-08-05T09:11:15.204Z,101107.41
2022-08-05T09:14:10.045Z,101114.19
2022-08-05T09:16:29.584Z,101123.50
2022-08-05T09:18:56.192Z,101136.44
2022-08-05T09:22:17.899Z,101145.53
2022-08-05T09:24:15.315Z,101167.75
2022-08-05T09:26:43.763Z,101175.19
2022-08-05T09:29:10.798Z,101181.75
2022-08-05T09:32:42.205Z,101180.09
2022-08-05T09:34:50.034Z,101161.88
2022-08-05T09:37:17.482Z,101147.25
2022-08-05T09:40:04.355Z,101156.59
2022-08-05T09:42:39.242Z,101143.06
2022-08-05T09:46:04.586Z,101151.31
2022-08-05T09:47:56.295Z,101146.66
2022-08-05T09:50:37.797Z,101147.72
2022-08-05T09:53:14.187Z,101152.38
2022-08-05T09:56:12.924Z,101149.63
2022-08-05T09:58:41.862Z,101161.47
2022-08-05T10:01:15.196Z,101160.41
2022-08-05T10:03:58.714Z,101143.06
2022-08-05T10:06:26.469Z,101144.72
2022-08-05T10:08:55.651Z,101141.97
2022-08-05T10:11:22.819Z,101140.06
2022-08-05T10:13:49.544Z,101143.66
2022-08-05T10:16:30.298Z,101144.72
2022-08-05T10:18:58.621Z,101150.25
2022-08-05T10:21:25.385Z,101150.25
2022-08-05T10:24:06.256Z,101147.47
2022-08-05T10:26:37.262Z,101149.41
2022-08-05T10:29:23.527Z,101138.38
2022-08-05T10:32:52.808Z,101123.78
2022-08-05T10:34:40.960Z,101104.72
2022-08-05T10:37:08.100Z,101092.66
2022-08-05T10:39:59.153Z,101103.88
2022-08-05T10:42:33.307Z,101094.78
2022-08-05T10:45:01.389Z,101127.63
2022-08-05T10:47:32.831Z,101130.56
2022-08-05T10:50:20.453Z,101146.88
2022-08-05T10:52:53.922Z,101131.41
2022-08-05T10:55:25.997Z,101122.09
2022-08-05T10:58:11.714Z,101107.47
2022-08-05T11:00:45.989Z,101112.13
2022-08-05T11:03:24.923Z,101122.31
2022-08-05T11:06:03.798Z,101133.31
2022-08-05T11:08:38.082Z,101144.13
2022-08-05T11:11:24.617Z,101146.00
2022-08-05T11:14:00.910Z,101142.41
2022-08-05T11:16:47.817Z,101160.63
2022-08-05T11:20:11.576Z,101153.22
2022-08-05T11:22:36.813Z,101146.00
2022-08-05T11:26:04.616Z,101143.50
2022-08-05T11:28:17.119Z,101144.31
2022-08-05T11:30:58.400Z,101154.25
2022-08-05T11:33:43.849Z,101154.91
2022-08-05T11:36:14.438Z,101155.13
2022-08-05T11:38:45.693Z,101154.06
2022-08-05T11:41:57.989Z,101159.56
2022-08-05T11:44:40.453Z,101160.63
2022-08-05T11:47:14.098Z,101169.75
2022-08-05T11:49:54.778Z,101164.00
2022-08-05T11:52:28.982Z,101166.53
2022-08-05T11:54:56.843Z,101159.13
2022-08-05T11:57:28.086Z,101159.75
2022-08-05T11:59:57.758Z,101160.34
2022-08-05T12:02:33.181Z,101159.06
2022-08-05T12:05:01.006Z,101164.34
2022-08-05T12:08:10.385Z,101156.94
2022-08-05T12:10:20.930Z,101151.44
2022-08-05T12:12:58.482Z,101161.16
2022-08-05T12:15:38.256Z,101161.97
2022-08-05T12:18:10.460Z,101167.28
2022-08-05T12:20:39.036Z,101167.28
2022-08-05T12:23:09.739Z,101174.47
2022-08-05T12:25:53.523Z,101168.97
2022-08-05T12:28:36.711Z,101170.66
2022-08-05T12:31:03.861Z,101165.13
2022-08-05T12:33:36.042Z,101171.28
2022-08-05T12:36:07.971Z,101163.03
2022-08-05T12:38:37.118Z,101162.56
2022-08-05T12:41:12.462Z,101149.88
2022-08-05T12:43:50.231Z,101156.84
2022-08-05T12:46:28.868Z,101162.13
2022-08-05T12:49:13.499Z,101159.34
2022-08-05T12:52:12.131Z,101153.63
2022-08-05T12:54:31.830Z,101149.81
2022-08-05T12:56:59.431Z,101158.09
2022-08-05T12:59:46.755Z,101155.31
2022-08-05T13:02:20.291Z,101161.88
2022-08-05T13:04:54.986Z,101152.78
2022-08-05T13:07:47.831Z,101158.91
2022-08-05T13:10:13.682Z,101155.31
2022-08-05T13:12:50.727Z,101158.09
2022-08-05T13:15:41.169Z,101157.84
2022-08-05T13:18:19.383Z,101162.50
2022-08-05T13:20:46.775Z,101166.09
2022-08-05T13:23:13.594Z,101168.03
2022-08-05T13:25:52.764Z,101164.44
2022-08-05T13:28:25.783Z,101160.00
2022-08-05T13:30:53.473Z,101148.97
2022-08-05T13:34:23.963Z,101152.19
2022-08-05T13:36:09.124Z,101148.09
2022-08-05T13:38:42.495Z,101147.50
2022-08-05T13:41:09.907Z,101157.69
2022-08-05T13:43:43.507Z,101156.00
2022-08-05T13:46:12.641Z,101157.91
2022-08-05T13:48:57.696Z,101157.91
2022-08-05T13:51:40.217Z,101160.88
2022-08-05T13:54:12.536Z,101149.88
2022-08-05T13:56:40.038Z,101147.94
2022-08-05T13:59:24.970Z,101153.44
2022-08-05T14:01:56.885Z,101151.53
2022-08-05T14:04:55.053Z,101154.94
2022-08-05T14:08:00.844Z,101146.91
2022-08-05T14:10:18.421Z,101158.75
2022-08-05T14:12:48.735Z,101158.75
2022-08-05T14:16:08.192Z,101155.16
2022-08-05T14:18:02.475Z,101162.34
2022-08-05T14:20:30.918Z,101161.50
2022-08-05T14:22:58.338Z,101160.44
2022-08-05T14:25:28.306Z,101164.03
2022-08-05T14:27:56.658Z,101164.25
2022-08-05T14:30:26.665Z,101158.75
2022-08-05T14:32:54.523Z,101158.75
2022-08-05T14:35:37.507Z,101163.19
2022-08-05T14:38:33.333Z,101167.84
2022-08-05T14:40:58.531Z,101167.84
2022-08-05T14:44:00.284Z,101166.78
2022-08-05T14:46:12.093Z,101174.19
2022-08-05T14:48:38.610Z,101180.31
2022-08-05T14:51:05.402Z,101178.41
2022-08-05T14:53:35.046Z,101179.28
2022-08-05T14:56:11.247Z,101182.88
2022-08-05T14:58:38.382Z,101186.66
2022-08-05T15:01:16.177Z,101188.38
2022-08-05T15:03:44.034Z,101198.56
2022-08-05T15:06:15.403Z,101192.16
2022-08-05T15:09:01.161Z,101194.72
2022-08-05T15:11:51.920Z,101204.91
2022-08-05T15:14:33.173Z,101203.19
2022-08-05T15:17:03.814Z,101202.56
2022-08-05T15:19:30.959Z,101208.94
2022-08-05T15:21:57.923Z,101203.84
2022-08-05T15:24:27.244Z,101208.31
2022-08-05T15:26:53.798Z,101207.47
2022-08-05T15:29:22.613Z,101201.09
2022-08-05T15:31:53.021Z,101205.78
2022-08-05T15:34:32.550Z,101203.00
2022-08-05T15:37:04.807Z,101206.00
2022-08-05T15:40:59.389Z,101209.59
2022-08-05T15:42:54.336Z,101212.59
2022-08-05T15:45:06.730Z,101213.63
2022-08-05T15:47:36.053Z,101219.13
2022-08-05T15:50:02.791Z,101216.63
2022-08-05T15:52:52.800Z,101216.63
2022-08-05T15:55:17.654Z,101224.03
2022-08-05T15:57:48.832Z,101223.41
2022-08-05T16:00:25.828Z,101225.09
2022-08-05T16:02:59.547Z,101226.16
2022-08-05T16:05:28.468Z,101227.03
2022-08-05T16:07:55.124Z,101242.66
2022-08-05T16:10:25.463Z,101250.09
2022-08-05T16:12:53.569Z,101246.28
2022-08-05T16:15:22.605Z,101252.00
2022-08-05T16:17:57.780Z,101256.66
2022-08-05T16:20:25.194Z,101255.81
2022-08-05T16:22:51.628Z,101257.75
2022-08-05T16:25:18.241Z,101257.75
2022-08-05T16:28:00.413Z,101263.00
2022-08-05T16:30:31.794Z,101264.94
2022-08-05T16:33:01.002Z,101282.28
2022-08-05T16:35:33.748Z,101278.69
2022-08-05T16:38:23.809Z,101275.09
2022-08-05T16:40:59.825Z,101282.28
2022-08-05T16:43:28.747Z,101294.38
2022-08-05T16:46:03.446Z,101297.97
2022-08-05T16:48:35.926Z,101296.91
2022-08-05T16:51:02.531Z,101301.56
2022-08-05T16:54:06.017Z,101313.41
2022-08-05T16:56:22.779Z,101321.06
2022-08-05T16:58:49.986Z,101331.84
2022-08-05T17:01:16.681Z,101327.19
2022-08-05T17:03:45.480Z,101345.63
2022-08-05T17:06:12.063Z,101340.09
2022-08-05T17:08:53.229Z,101353.03
2022-08-05T17:11:20.959Z,101347.53
2022-08-05T17:13:50.413Z,101345.84
2022-08-05T17:16:32.764Z,101358.75
2022-08-05T17:19:00.434Z,101367.22
2022-08-05T17:21:36.145Z,101366.63
2022-08-05T17:24:27.978Z,101366.81
2022-08-05T17:26:55.776Z,101374.22
2022-08-05T17:29:34.005Z,101384.63
2022-08-05T17:32:06.999Z,101400.31
2022-08-05T17:34:35.024Z,101413.41
2022-08-05T17:37:01.719Z,101412.59
2022-08-05T17:39:34.051Z,101427.19
2022-08-05T17:42:18.884Z,101432.91
2022-08-05T17:44:50.967Z,101438.84
2022-08-05T17:47:22.267Z,101439.91
2022-08-05T17:49:52.096Z,101445.84
2022-08-05T17:52:31.714Z,101456.25
2022-08-05T17:54:58.231Z,101459.19
2022-08-05T17:57:24.738Z,101463.22
2022-08-05T18:00:05.418Z,101477.00
2022-08-05T18:02:35.885Z,101491.78
2022-08-05T18:05:06.292Z,101498.59
2022-08-05T18:07:41.293Z,101497.31
2022-08-05T18:10:10.390Z,101515.94
2022-08-05T18:12:37.219Z,101508.75
2022-08-05T18:15:04.184Z,101516.56
2022-08-05T18:18:00.440Z,101523.97
2022-08-05T18:20:19.389Z,101526.97
2022-08-05T18:22:57.260Z,101530.94
2022-08-05T18:25:25.214Z,101533.69
2022-08-05T18:27:59.334Z,101539.41
2022-08-05T18:30:29.175Z,101547.84
2022-08-05T18:33:00.333Z,101529.66
2022-08-05T18:35:49.710Z,101522.47
2022-08-05T18:38:16.405Z,101498.97
2022-08-05T18:41:56.163Z,101499.41
2022-08-05T18:43:37.967Z,101515.47
2022-08-05T18:46:09.953Z,101529.88
2022-08-05T18:48:41.594Z,101532.19
2022-08-05T18:52:04.016Z,101536.88
2022-08-05T18:54:14.198Z,101541.72
2022-08-05T18:56:40.755Z,101534.53
2022-08-05T18:59:43.651Z,101536.66
2022-08-05T19:01:56.770Z,101548.28
2022-08-05T19:04:24.509Z,101555.88
2022-08-05T19:06:51.523Z,101562.44
2022-08-05T19:09:20.242Z,101575.53
2022-08-05T19:12:00.473Z,101572.81
2022-08-05T19:14:52.397Z,101585.94
2022-08-05T19:17:14.386Z,101569.84
2022-08-05T19:19:46.375Z,101573.88
2022-08-05T19:22:17.106Z,101574.91
2022-08-05T19:24:55.991Z,101592.47
2022-08-05T19:27:23.340Z,101584.63
2022-08-05T19:29:50.041Z,101591.59
2022-08-05T19:32:16.545Z,101598.16
2022-08-05T19:34:55.289Z,101599.41
2022-08-05T19:37:30.103Z,101607.84
2022-08-05T19:40:10.675Z,101602.56
2022-08-05T19:42:38.762Z,101603.59
2022-08-05T19:45:07.149Z,101605.94
2022-08-05T19:47:37.468Z,101603.59
2022-08-05T19:50:04.331Z,101609.31
2022-08-05T19:52:32.700Z,101613.94
2022-08-05T19:55:00.674Z,101616.91
2022-08-05T19:57:47.401Z,101619.88
2022-08-05T20:00:20.764Z,101630.88
2022-08-05T20:02:47.381Z,101621.78
2022-08-05T20:05:16.592Z,101622.16
2022-08-05T20:07:53.879Z,101628.69
2022-08-05T20:10:24.444Z,101632.47
2022-08-05T20:12:51.537Z,101646.44
2022-08-05T20:15:23.083Z,101658.28
2022-08-05T20:18:10.837Z,101669.28
2022-08-05T20:20:52.263Z,101670.97
2022-08-05T20:23:22.494Z,101675.63
2022-08-05T20:25:49.185Z,101670.34
2022-08-05T20:28:19.188Z,101665.91
2022-08-05T20:30:45.814Z,101655.09
2022-08-05T20:33:14.368Z,101661.84
2022-08-05T20:35:45.663Z,101663.94
2022-08-05T20:38:14.419Z,101666.69
2022-08-05T20:40:50.366Z,101679.59
2022-08-05T20:43:17.400Z,101682.56
2022-08-05T20:46:00.392Z,101678.06
2022-08-05T20:48:27.289Z,101678.06
2022-08-05T20:50:53.742Z,101679.34
2022-08-05T20:53:37.025Z,101682.09
2022-08-05T20:56:08.438Z,101695.19
2022-08-05T20:58:36.094Z,101708.06
2022-08-05T21:01:04.204Z,101706.38
2022-08-05T21:03:34.624Z,101713.56
2022-08-05T21:06:01.750Z,101704.03
2022-08-05T21:08:42.392Z,101728.13
2022-08-05T21:11:11.953Z,101735.69
2022-08-05T21:13:47.975Z,101741.19
2022-08-05T21:16:23.498Z,101747.53
2022-08-05T21:18:56.806Z,101741.19
2022-08-05T21:21:44.149Z,101748.81
2022-08-05T21:24:15.383Z,101754.31
2022-08-05T21:26:44.915Z,101767.19
2022-08-05T21:29:16.693Z,101762.09
2022-08-05T21:31:43.460Z,101769.28
2022-08-05T21:34:11.069Z,101764.00
2022-08-05T21:36:37.724Z,101771.56
2022-08-05T21:39:04.366Z,101764.16
2022-08-05T21:41:34.227Z,101771.56
2022-08-05T21:44:04.380Z,101770.09
2022-08-05T21:46:32.013Z,101776.59
2022-08-05T21:49:01.254Z,101771.53
2022-08-05T21:52:22.949Z,101761.38
2022-08-05T21:54:14.125Z,101756.94
2022-08-05T21:56:44.229Z,101761.56
2022-08-05T21:59:23.994Z,101758.44
2022-08-05T22:01:51.739Z,101758.25
2022-08-05T22:04:21.070Z,101765.44
2022-08-05T22:06:52.122Z,101760.13
2022-08-05T22:09:20.762Z,101759.69
2022-08-05T22:11:48.348Z,101768.78
2022-08-05T22:14:33.673Z,101776.81
2022-08-05T22:17:04.960Z,101780.00
2022-08-05T22:20:00.303Z,101781.06
2022-08-05T22:22:27.408Z,101783.59
2022-08-05T22:25:20.968Z,101786.16
2022-08-05T22:28:09.741Z,101782.38
2022-08-05T22:30:55.805Z,101775.38
2022-08-05T22:33:55.604Z,101776.22
2022-08-05T22:36:11.063Z,101784.28
2022-08-05T22:38:41.394Z,101780.66
2022-08-05T22:41:09.628Z,101800.75
2022-08-05T22:43:40.645Z,101800.75
2022-08-05T22:46:13.119Z,101803.50
2022-08-05T22:48:41.169Z,101795.25
2022-08-05T22:51:08.109Z,101806.44
2022-08-05T22:53:42.665Z,101806.63
2022-08-05T22:56:16.417Z,101800.94
2022-08-05T22:58:45.189Z,101811.09
2022-08-05T23:01:11.730Z,101817.41
2022-08-05T23:03:57.989Z,101823.13
2022-08-05T23:06:26.451Z,101831.38
2022-08-05T23:08:53.049Z,101832.59
2022-08-05T23:11:19.584Z,101835.16
2022-08-05T23:13:46.007Z,101834.50
2022-08-05T23:16:33.630Z,101840.00
2022-08-05T23:19:01.018Z,101832.81
2022-08-05T23:21:42.524Z,101839.34
2022-08-05T23:24:11.126Z,101841.22
2022-08-05T23:26:38.210Z,101839.53
2022-08-05T23:29:05.294Z,101834.88
2022-08-05T23:31:31.855Z,101836.78
2022-08-05T23:34:03.880Z,101837.84
2022-08-05T23:36:39.587Z,101836.16
2022-08-05T23:39:17.192Z,101843.53
2022-08-05T23:41:50.002Z,101842.66
2022-08-05T23:44:19.800Z,101839.06
2022-08-05T23:46:51.399Z,101835.47
2022-08-05T23:49:20.138Z,101839.50
2022-08-05T23:52:10.415Z,101847.72
2022-08-05T23:54:38.681Z,101852.56
2022-08-05T23:57:06.073Z,101851.69
